• Join FlightAware (Why Join?)
  • Login
  • US Flag 
11:51PM EDT


 

Airport Tracker/Info


-or-


 

Live Flight TrackerFlight Track Log ✈ AWE2056 ✈ 30-Jan-2014 ✈ KCLT - KRDU

Flight Track Log - Related Links

Times and Time Zones

All times are in EST time to prevent confusion due to time zone crossing. See the AWE2056 flight status page for this flight to view local times or setup timezone preferences in your user account.

Time Position Orientation Groundspeed Altitude Reporting Facility
EST Latitude Longitude Course Direction KTS MPH feet Rate Location/Type
04:23PM 35.1908 -80.9331 104° East 175 201 1,900  Level Atlanta Center
04:23PM 35.1719 -80.9339 182° South 169 194 2,600 2,100 Climbing Atlanta Center
04:24PM 35.1189 -80.8953 149° Southeast 233 268 4,900 2,160 Climbing Atlanta Center
04:25PM 35.0919 -80.8225 114° Southeast 273 314 7,000 1,920 Climbing Atlanta Center
04:26PM 35.1036 -80.7181 82° East 323 372 8,900 4,500 Climbing Atlanta Center
04:27PM 35.0796 -80.5619 109° East  Level FlightAware Approximate
04:27PM 35.1103 -80.6492 83° East 313 360 15,000  Level Atlanta Center
04:28PM 35.0580 -80.4734 104° East  Level FlightAware Approximate
04:28PM 35.0819 -80.5361 107° East 327 376 9,800  Level Atlanta Center
04:31PM 35.0081 -80.2325 106° East 411 473 13,200 1,440 Climbing Washington Center
04:32PM 34.9739 -80.0936 107° East 430 495 14,900 900 Climbing Washington Center
04:32PM 34.9975 -79.9606 78° East 397 457 15,000 -60 Climbing Washington Center
04:33PM 35.0761 -79.8633 45° Northeast 384 442 14,800 -600 Descending Washington Center
04:35PM 35.1567 -79.7711 43° Northeast 384 442 13,800 -960 Descending Washington Center
04:35PM 35.2328 -79.6808 44° Northeast 384 442 12,900 -1,020 Descending Washington Center
04:36PM 35.2678 -79.6369 46° Northeast 385 443 12,400 -1,080 Descending Washington Center
04:37PM 35.3219 -79.5758 43° Northeast 380 437 11,700 -900 Descending Washington Center
04:37PM 35.3825 -79.5078 42° Northeast 366 421 11,000 -720 Descending Washington Center
04:38PM 35.3956 -79.4956 37° Northeast 346 398 11,000  Level Washington Center
04:39PM 35.4497 -79.4294 45° Northeast 334 384 11,000 -120 Level Washington Center
04:39PM 35.4606 -79.4197 36° Northeast 318 366 10,900 -1,680 Descending Washington Center
04:39PM 35.5206 -79.3664 36° Northeast 321 369 9,400 -1,800 Descending Washington Center
04:40PM 35.5294 -79.3489 58° Northeast 331 381 9,100 -2,100 Descending Washington Center
04:40PM 35.5692 -79.2844 53° Northeast 313 360 7,300 -2,280 Descending Washington Center
04:41PM 35.5825 -79.2594 57° Northeast 324 373 6,800 -1,620 Descending Washington Center
04:42PM 35.6156 -79.1972 57° Northeast 309 356 5,700 -1,920 Descending Washington Center
04:42PM 35.6289 -79.1722 57° Northeast 277 319 4,900 -2,280 Descending Washington Center
04:42PM 35.6619 -79.1097 57° Northeast 277 319 3,500 -1,680 Descending Washington Center
04:43PM 35.6708 -79.0975 48° Northeast 259 298 3,200 -540 Descending Washington Center
04:43PM 35.6953 -79.0472 59° Northeast 264 304 3,000 -240 Descending Washington Center
04:44PM 35.7064 -79.0222 61° Northeast 252 290 3,000  Level Washington Center
04:44PM 35.7325 -78.9797 53° Northeast 246 283 3,000  Level Washington Center
04:45PM 35.7478 -78.9625 42° Northeast 222 255 3,000  Level Washington Center
04:46PM 35.7844 -78.9131 48° Northeast 191 220 3,000 -660 Level Washington Center
04:47PM 35.8278 -78.8608 44° Northeast 182 209 1,700 -1,020 Descending Washington Center
04:48PM 35.8514 -78.8286 48° Northeast 138 159 1,000 -780 Descending Washington Center